createdAt,value
2018-12-15T09:11:11.001Z,5.43
2018-12-15T09:16:14.226Z,6.03
2018-12-15T09:21:17.695Z,5.73
2018-12-15T09:26:20.918Z,5.93
2018-12-15T09:31:24.109Z,5.77
2018-12-15T09:36:27.311Z,5.77
2018-12-15T09:41:30.806Z,5.47
2018-12-15T09:46:34.163Z,5.67
2018-12-15T09:51:37.345Z,5.67
2018-12-15T09:56:41.139Z,5.43
2018-12-15T10:01:44.383Z,5.03
2018-12-15T10:06:47.601Z,5.23
2018-12-15T10:11:50.805Z,5.23
2018-12-15T10:16:54.342Z,5.63
2018-12-15T10:21:57.569Z,5.40
2018-12-15T10:27:00.758Z,4.67
2018-12-15T10:32:09.247Z,4.60
2018-12-15T10:37:12.382Z,5.40
2018-12-15T10:42:16.213Z,5.20
2018-12-15T10:47:19.794Z,4.87
2018-12-15T10:52:22.988Z,4.77
2018-12-15T10:57:26.195Z,5.07
2018-12-15T11:02:29.373Z,4.80
2018-12-15T11:07:32.557Z,5.00
2018-12-15T11:12:35.647Z,4.90
2018-12-15T11:17:38.786Z,4.90
2018-12-15T11:22:41.930Z,4.87
2018-12-15T11:27:45.087Z,5.20
2018-12-15T11:32:48.267Z,5.27
2018-12-15T11:37:51.410Z,4.60
2018-12-15T11:42:54.496Z,4.60
2018-12-15T11:47:57.638Z,4.67
2018-12-15T11:53:00.715Z,4.90
2018-12-15T11:58:03.874Z,5.20
2018-12-15T12:03:06.983Z,4.67
2018-12-15T12:08:10.105Z,5.10
2018-12-15T12:13:13.303Z,5.10
2018-12-15T12:18:16.410Z,5.27
2018-12-15T12:23:19.607Z,5.60
2018-12-15T12:28:22.778Z,5.57
2018-12-15T12:33:25.863Z,5.40
2018-12-15T12:38:29.047Z,5.23
2018-12-15T12:43:32.234Z,5.87
2018-12-15T12:48:35.363Z,5.73
2018-12-15T12:53:38.459Z,5.60
2018-12-15T12:58:41.631Z,5.80
2018-12-15T13:03:44.809Z,5.80
2018-12-15T13:08:47.968Z,5.67
2018-12-15T13:13:51.142Z,5.33
2018-12-15T13:18:54.259Z,6.23
2018-12-15T13:23:57.502Z,5.83
2018-12-15T13:29:00.642Z,5.73
2018-12-15T13:34:03.835Z,5.50
2018-12-15T13:39:07.007Z,5.90
2018-12-15T13:44:10.225Z,5.83
2018-12-15T13:49:13.398Z,5.80
2018-12-15T13:54:16.573Z,5.77
2018-12-15T13:59:19.757Z,6.23
2018-12-15T14:04:22.946Z,6.27
2018-12-15T14:09:26.174Z,6.03
2018-12-15T14:14:29.250Z,6.23
2018-12-15T14:19:32.426Z,5.67
2018-12-15T14:24:42.573Z,5.80
2018-12-15T14:29:45.854Z,6.17
2018-12-15T14:34:49.008Z,6.23
2018-12-15T14:39:52.180Z,5.73
2018-12-15T14:44:55.330Z,5.93
2018-12-15T14:49:58.518Z,6.10
2018-12-15T14:55:01.679Z,6.43
2018-12-15T15:00:06.580Z,5.53
2018-12-15T15:05:09.730Z,6.00
2018-12-15T15:10:12.905Z,6.20
2018-12-15T15:15:16.022Z,6.47
2018-12-15T15:20:19.174Z,6.13
2018-12-15T15:25:22.357Z,6.40
2018-12-15T15:30:25.515Z,5.40
2018-12-15T15:35:28.693Z,6.03
2018-12-15T15:40:31.887Z,6.40
2018-12-15T15:45:35.067Z,6.37
2018-12-15T15:50:38.195Z,6.23
2018-12-15T15:55:41.387Z,6.43
2018-12-15T16:00:44.576Z,7.03
2018-12-15T16:05:47.745Z,6.80
2018-12-15T16:10:50.910Z,6.10
2018-12-15T16:15:54.068Z,6.27
2018-12-15T16:20:57.175Z,6.47
2018-12-15T16:26:00.650Z,6.80
2018-12-15T16:31:03.896Z,6.60
2018-12-15T16:36:07.039Z,6.47
2018-12-15T16:41:10.531Z,6.17
2018-12-15T16:46:13.957Z,6.90
2018-12-15T16:51:17.094Z,6.97
2018-12-15T16:56:20.298Z,7.40
2018-12-15T17:01:23.583Z,7.57
2018-12-15T17:06:27.003Z,6.70
2018-12-15T17:11:30.134Z,7.73
2018-12-15T17:16:33.356Z,6.87
2018-12-15T17:21:37.556Z,7.30
2018-12-15T17:26:41.714Z,6.90
2018-12-15T17:31:44.954Z,7.03
2018-12-15T17:36:48.129Z,7.57
2018-12-15T17:41:51.339Z,7.47
2018-12-15T17:46:54.574Z,7.60
2018-12-15T17:51:57.891Z,7.23
2018-12-15T17:57:01.231Z,8.47
2018-12-15T18:02:04.585Z,8.97
2018-12-15T18:07:07.706Z,8.33
2018-12-15T18:12:10.995Z,8.80
2018-12-15T18:17:14.391Z,8.77
2018-12-15T18:22:17.930Z,8.70
2018-12-15T18:27:21.285Z,7.83
2018-12-15T18:32:24.388Z,8.80
2018-12-15T18:37:27.589Z,8.30
2018-12-15T18:42:31.218Z,8.63
2018-12-15T18:47:34.597Z,8.97
2018-12-15T18:52:38.041Z,8.97
2018-12-15T18:57:41.402Z,9.33
2018-12-15T19:02:44.594Z,9.30
2018-12-15T19:07:47.819Z,9.37
2018-12-15T19:12:51.091Z,9.90
2018-12-15T19:17:54.428Z,9.27
2018-12-15T19:22:58.034Z,9.90
2018-12-15T19:28:01.222Z,8.23
2018-12-15T19:33:04.662Z,9.07
2018-12-15T19:38:08.061Z,9.07
2018-12-15T19:43:11.130Z,8.83
2018-12-15T19:48:14.283Z,10.83
2018-12-15T19:53:17.925Z,9.43
2018-12-15T19:58:21.630Z,9.30
2018-12-15T20:03:25.439Z,9.27
2018-12-15T20:08:29.024Z,9.00
2018-12-15T20:13:32.814Z,10.47
2018-12-15T20:18:36.258Z,10.03
2018-12-15T20:23:39.661Z,10.13
2018-12-15T20:28:42.968Z,10.40
2018-12-15T20:33:46.469Z,10.93
2018-12-15T20:38:50.397Z,10.43
2018-12-15T20:43:53.813Z,10.03
2018-12-15T20:48:57.052Z,11.00
2018-12-15T20:54:00.243Z,10.27
2018-12-15T20:59:03.450Z,10.80
2018-12-15T21:04:06.596Z,10.33
2018-12-15T21:09:09.718Z,10.60
2018-12-15T21:14:12.865Z,11.10
2018-12-15T21:19:16.034Z,10.50
2018-12-15T21:24:19.237Z,10.47
2018-12-15T21:29:22.382Z,10.90
2018-12-15T21:34:25.606Z,10.57
2018-12-15T21:39:28.736Z,11.20
2018-12-15T21:44:31.982Z,12.07
2018-12-15T21:49:35.166Z,11.27
2018-12-15T21:54:38.399Z,12.37
2018-12-15T21:59:41.509Z,11.03
2018-12-15T22:04:44.707Z,12.33
2018-12-15T22:09:47.974Z,11.53
2018-12-15T22:14:51.118Z,10.80
2018-12-15T22:19:54.392Z,10.17
2018-12-15T22:24:57.680Z,12.20
2018-12-15T22:30:00.804Z,12.83
2018-12-15T22:35:04.408Z,12.07
2018-12-15T22:40:07.645Z,12.57
2018-12-15T22:45:10.778Z,12.33
2018-12-15T22:50:14.114Z,12.43
2018-12-15T22:55:17.298Z,12.10
2018-12-15T23:00:20.701Z,13.70
2018-12-15T23:05:24.246Z,12.10
2018-12-15T23:10:27.384Z,12.07
2018-12-15T23:15:30.570Z,12.50
2018-12-15T23:20:33.755Z,13.00
2018-12-15T23:25:36.915Z,12.83
2018-12-15T23:30:40.124Z,13.90
2018-12-15T23:35:43.330Z,12.40
2018-12-15T23:40:46.557Z,12.40
2018-12-15T23:45:49.830Z,12.77
2018-12-15T23:50:53.127Z,13.13
2018-12-15T23:55:56.342Z,12.83
